sensor_id;sensor_type;location;lat;lon;timestamp;P1;durP1;ratioP1;P2;durP2;ratioP2
82304;SDS011;71914;47.382;8.168;2023-12-20T00:01:21;13.75;;;6.68;;
82304;SDS011;71914;47.382;8.168;2023-12-20T00:03:49;12.68;;;5.95;;
82304;SDS011;71914;47.382;8.168;2023-12-20T00:06:14;11.10;;;5.97;;
82304;SDS011;71914;47.382;8.168;2023-12-20T00:08:40;11.43;;;5.93;;
82304;SDS011;71914;47.382;8.168;2023-12-20T00:11:05;9.95;;;6.07;;
82304;SDS011;71914;47.382;8.168;2023-12-20T00:13:31;13.63;;;6.85;;
82304;SDS011;71914;47.382;8.168;2023-12-20T00:15:57;12.77;;;6.05;;
82304;SDS011;71914;47.382;8.168;2023-12-20T00:18:22;13.93;;;7.38;;
82304;SDS011;71914;47.382;8.168;2023-12-20T00:20:50;10.10;;;5.75;;
82304;SDS011;71914;47.382;8.168;2023-12-20T00:25:41;13.13;;;6.63;;
82304;SDS011;71914;47.382;8.168;2023-12-20T00:28:08;12.93;;;6.65;;
82304;SDS011;71914;47.382;8.168;2023-12-20T00:30:33;14.43;;;6.78;;
82304;SDS011;71914;47.382;8.168;2023-12-20T00:32:59;12.60;;;6.32;;
82304;SDS011;71914;47.382;8.168;2023-12-20T00:35:24;13.50;;;7.00;;
82304;SDS011;71914;47.382;8.168;2023-12-20T00:37:51;13.82;;;6.88;;
82304;SDS011;71914;47.382;8.168;2023-12-20T00:40:17;14.25;;;7.65;;
82304;SDS011;71914;47.382;8.168;2023-12-20T00:42:43;14.38;;;7.20;;
82304;SDS011;71914;47.382;8.168;2023-12-20T00:45:08;14.73;;;7.93;;
82304;SDS011;71914;47.382;8.168;2023-12-20T00:47:34;16.08;;;8.88;;
82304;SDS011;71914;47.382;8.168;2023-12-20T00:50:00;16.95;;;7.30;;
82304;SDS011;71914;47.382;8.168;2023-12-20T00:52:26;17.77;;;7.35;;
82304;SDS011;71914;47.382;8.168;2023-12-20T00:54:53;15.98;;;8.07;;
82304;SDS011;71914;47.382;8.168;2023-12-20T00:57:18;15.00;;;7.18;;
82304;SDS011;71914;47.382;8.168;2023-12-20T00:59:44;14.57;;;7.30;;
82304;SDS011;71914;47.382;8.168;2023-12-20T01:07:07;13.02;;;6.30;;
82304;SDS011;71914;47.382;8.168;2023-12-20T01:09:35;16.17;;;7.07;;
82304;SDS011;71914;47.382;8.168;2023-12-20T01:12:17;12.40;;;6.60;;
82304;SDS011;71914;47.382;8.168;2023-12-20T01:14:49;16.40;;;7.50;;
82304;SDS011;71914;47.382;8.168;2023-12-20T01:17:19;15.15;;;7.18;;
82304;SDS011;71914;47.382;8.168;2023-12-20T01:19:54;16.58;;;6.93;;
82304;SDS011;71914;47.382;8.168;2023-12-20T01:22:19;11.63;;;6.53;;
82304;SDS011;71914;47.382;8.168;2023-12-20T01:24:45;13.25;;;6.32;;
82304;SDS011;71914;47.382;8.168;2023-12-20T01:27:15;16.40;;;8.50;;
82304;SDS011;71914;47.382;8.168;2023-12-20T01:29:52;11.60;;;6.20;;
82304;SDS011;71914;47.382;8.168;2023-12-20T01:32:26;13.00;;;7.13;;
82304;SDS011;71914;47.382;8.168;2023-12-20T01:34:54;12.27;;;6.63;;
82304;SDS011;71914;47.382;8.168;2023-12-20T01:37:20;14.30;;;6.53;;
82304;SDS011;71914;47.382;8.168;2023-12-20T01:39:51;12.48;;;6.47;;
82304;SDS011;71914;47.382;8.168;2023-12-20T01:42:24;11.57;;;5.55;;
82304;SDS011;71914;47.382;8.168;2023-12-20T01:44:50;15.45;;;7.03;;
82304;SDS011;71914;47.382;8.168;2023-12-20T01:47:16;13.10;;;6.47;;
82304;SDS011;71914;47.382;8.168;2023-12-20T01:49:42;11.63;;;6.28;;
82304;SDS011;71914;47.382;8.168;2023-12-20T01:52:08;11.60;;;6.35;;
82304;SDS011;71914;47.382;8.168;2023-12-20T01:54:34;15.10;;;6.90;;
82304;SDS011;71914;47.382;8.168;2023-12-20T01:57:01;12.63;;;5.80;;
82304;SDS011;71914;47.382;8.168;2023-12-20T01:59:29;12.02;;;6.15;;
82304;SDS011;71914;47.382;8.168;2023-12-20T02:01:56;11.35;;;5.53;;
82304;SDS011;71914;47.382;8.168;2023-12-20T02:04:22;9.90;;;5.43;;
82304;SDS011;71914;47.382;8.168;2023-12-20T02:06:48;13.05;;;5.82;;
82304;SDS011;71914;47.382;8.168;2023-12-20T02:09:17;11.25;;;5.38;;
82304;SDS011;71914;47.382;8.168;2023-12-20T02:11:43;10.95;;;5.78;;
82304;SDS011;71914;47.382;8.168;2023-12-20T02:14:09;9.27;;;5.40;;
82304;SDS011;71914;47.382;8.168;2023-12-20T02:16:36;9.38;;;4.97;;
82304;SDS011;71914;47.382;8.168;2023-12-20T02:21:33;13.55;;;6.75;;
82304;SDS011;71914;47.382;8.168;2023-12-20T02:24:01;12.57;;;6.80;;
82304;SDS011;71914;47.382;8.168;2023-12-20T02:26:26;13.45;;;6.25;;
82304;SDS011;71914;47.382;8.168;2023-12-20T02:28:52;13.02;;;5.72;;
82304;SDS011;71914;47.382;8.168;2023-12-20T02:31:20;13.50;;;6.78;;
82304;SDS011;71914;47.382;8.168;2023-12-20T02:33:46;10.73;;;5.45;;
82304;SDS011;71914;47.382;8.168;2023-12-20T02:36:12;10.40;;;6.32;;
82304;SDS011;71914;47.382;8.168;2023-12-20T02:38:39;11.77;;;6.53;;
82304;SDS011;71914;47.382;8.168;2023-12-20T02:41:04;12.70;;;6.25;;
82304;SDS011;71914;47.382;8.168;2023-12-20T02:43:30;16.17;;;7.75;;
82304;SDS011;71914;47.382;8.168;2023-12-20T02:45:55;12.73;;;7.05;;
82304;SDS011;71914;47.382;8.168;2023-12-20T02:48:21;12.07;;;6.07;;
82304;SDS011;71914;47.382;8.168;2023-12-20T02:50:47;12.43;;;5.28;;
82304;SDS011;71914;47.382;8.168;2023-12-20T02:53:14;13.38;;;7.70;;
82304;SDS011;71914;47.382;8.168;2023-12-20T02:55:41;12.27;;;5.38;;
82304;SDS011;71914;47.382;8.168;2023-12-20T02:58:07;16.23;;;6.97;;
82304;SDS011;71914;47.382;8.168;2023-12-20T03:00:32;13.60;;;6.80;;
82304;SDS011;71914;47.382;8.168;2023-12-20T03:02:58;12.98;;;6.50;;
82304;SDS011;71914;47.382;8.168;2023-12-20T03:05:24;13.52;;;6.32;;
82304;SDS011;71914;47.382;8.168;2023-12-20T03:07:50;10.38;;;5.72;;
82304;SDS011;71914;47.382;8.168;2023-12-20T03:10:16;12.30;;;7.18;;
82304;SDS011;71914;47.382;8.168;2023-12-20T03:12:44;12.63;;;5.95;;
82304;SDS011;71914;47.382;8.168;2023-12-20T03:15:10;17.02;;;7.40;;
82304;SDS011;71914;47.382;8.168;2023-12-20T03:17:36;15.65;;;7.50;;
82304;SDS011;71914;47.382;8.168;2023-12-20T03:20:01;18.38;;;7.90;;
82304;SDS011;71914;47.382;8.168;2023-12-20T03:22:27;13.40;;;7.05;;
82304;SDS011;71914;47.382;8.168;2023-12-20T03:24:53;14.50;;;8.38;;
82304;SDS011;71914;47.382;8.168;2023-12-20T03:27:18;13.63;;;5.97;;
82304;SDS011;71914;47.382;8.168;2023-12-20T03:29:45;17.67;;;9.07;;
82304;SDS011;71914;47.382;8.168;2023-12-20T03:32:11;12.93;;;6.63;;
82304;SDS011;71914;47.382;8.168;2023-12-20T03:34:37;16.58;;;7.70;;
82304;SDS011;71914;47.382;8.168;2023-12-20T03:37:02;12.13;;;5.20;;
82304;SDS011;71914;47.382;8.168;2023-12-20T03:39:28;11.43;;;6.32;;
82304;SDS011;71914;47.382;8.168;2023-12-20T03:41:54;18.30;;;7.13;;
82304;SDS011;71914;47.382;8.168;2023-12-20T03:44:19;12.48;;;5.95;;
82304;SDS011;71914;47.382;8.168;2023-12-20T03:46:47;10.77;;;5.38;;
82304;SDS011;71914;47.382;8.168;2023-12-20T03:49:14;8.20;;;4.55;;
82304;SDS011;71914;47.382;8.168;2023-12-20T03:51:39;9.65;;;4.95;;
82304;SDS011;71914;47.382;8.168;2023-12-20T03:56:32;8.70;;;4.60;;
82304;SDS011;71914;47.382;8.168;2023-12-20T03:58:58;4.82;;;3.75;;
82304;SDS011;71914;47.382;8.168;2023-12-20T04:01:23;7.90;;;4.82;;
82304;SDS011;71914;47.382;8.168;2023-12-20T04:03:50;8.25;;;4.18;;
82304;SDS011;71914;47.382;8.168;2023-12-20T04:06:16;8.43;;;4.80;;
82304;SDS011;71914;47.382;8.168;2023-12-20T04:08:42;10.80;;;5.68;;
82304;SDS011;71914;47.382;8.168;2023-12-20T04:11:08;10.40;;;5.65;;
82304;SDS011;71914;47.382;8.168;2023-12-20T04:13:33;12.18;;;6.28;;
82304;SDS011;71914;47.382;8.168;2023-12-20T04:15:59;11.63;;;5.90;;
82304;SDS011;71914;47.382;8.168;2023-12-20T04:18:25;10.52;;;5.68;;
82304;SDS011;71914;47.382;8.168;2023-12-20T04:20:51;11.13;;;6.00;;
82304;SDS011;71914;47.382;8.168;2023-12-20T04:23:17;10.35;;;5.65;;
82304;SDS011;71914;47.382;8.168;2023-12-20T04:25:43;10.68;;;6.20;;
82304;SDS011;71914;47.382;8.168;2023-12-20T04:28:08;11.77;;;6.55;;
82304;SDS011;71914;47.382;8.168;2023-12-20T04:30:34;11.40;;;5.82;;
82304;SDS011;71914;47.382;8.168;2023-12-20T04:33:00;12.18;;;6.70;;
82304;SDS011;71914;47.382;8.168;2023-12-20T04:35:25;11.38;;;6.55;;
82304;SDS011;71914;47.382;8.168;2023-12-20T04:37:52;11.43;;;6.85;;
82304;SDS011;71914;47.382;8.168;2023-12-20T04:40:18;12.13;;;6.20;;
82304;SDS011;71914;47.382;8.168;2023-12-20T04:42:44;9.25;;;5.68;;
82304;SDS011;71914;47.382;8.168;2023-12-20T04:45:09;12.93;;;7.63;;
82304;SDS011;71914;47.382;8.168;2023-12-20T04:47:37;12.57;;;6.68;;
82304;SDS011;71914;47.382;8.168;2023-12-20T04:50:03;11.55;;;6.20;;
82304;SDS011;71914;47.382;8.168;2023-12-20T04:52:30;13.93;;;6.97;;
82304;SDS011;71914;47.382;8.168;2023-12-20T04:54:57;13.90;;;6.85;;
82304;SDS011;71914;47.382;8.168;2023-12-20T04:57:23;11.98;;;6.50;;
82304;SDS011;71914;47.382;8.168;2023-12-20T04:59:48;12.75;;;6.45;;
82304;SDS011;71914;47.382;8.168;2023-12-20T05:02:14;10.90;;;6.18;;
82304;SDS011;71914;47.382;8.168;2023-12-20T05:04:39;10.73;;;5.53;;
82304;SDS011;71914;47.382;8.168;2023-12-20T05:07:06;10.18;;;4.82;;
82304;SDS011;71914;47.382;8.168;2023-12-20T05:09:32;8.38;;;4.45;;
82304;SDS011;71914;47.382;8.168;2023-12-20T05:11:59;9.43;;;5.32;;
82304;SDS011;71914;47.382;8.168;2023-12-20T05:14:25;6.38;;;3.67;;
82304;SDS011;71914;47.382;8.168;2023-12-20T05:16:51;9.25;;;5.10;;
82304;SDS011;71914;47.382;8.168;2023-12-20T05:19:16;9.48;;;5.88;;
82304;SDS011;71914;47.382;8.168;2023-12-20T05:21:42;14.35;;;6.63;;
82304;SDS011;71914;47.382;8.168;2023-12-20T05:24:07;17.38;;;6.97;;
82304;SDS011;71914;47.382;8.168;2023-12-20T05:26:33;14.05;;;7.10;;
82304;SDS011;71914;47.382;8.168;2023-12-20T05:29:00;12.68;;;6.47;;
82304;SDS011;71914;47.382;8.168;2023-12-20T05:31:26;11.85;;;6.35;;
82304;SDS011;71914;47.382;8.168;2023-12-20T05:33:52;12.43;;;6.78;;
82304;SDS011;71914;47.382;8.168;2023-12-20T05:36:18;11.60;;;5.88;;
82304;SDS011;71914;47.382;8.168;2023-12-20T05:38:43;11.93;;;6.55;;
82304;SDS011;71914;47.382;8.168;2023-12-20T05:41:09;13.20;;;6.32;;
82304;SDS011;71914;47.382;8.168;2023-12-20T05:43:34;13.60;;;5.95;;
82304;SDS011;71914;47.382;8.168;2023-12-20T05:46:01;12.85;;;7.55;;
82304;SDS011;71914;47.382;8.168;2023-12-20T05:48:27;13.50;;;7.20;;
82304;SDS011;71914;47.382;8.168;2023-12-20T05:50:53;10.02;;;5.57;;
82304;SDS011;71914;47.382;8.168;2023-12-20T05:53:18;12.73;;;6.10;;
82304;SDS011;71914;47.382;8.168;2023-12-20T05:55:44;11.05;;;5.18;;
82304;SDS011;71914;47.382;8.168;2023-12-20T05:58:10;15.35;;;6.97;;
82304;SDS011;71914;47.382;8.168;2023-12-20T06:00:35;14.48;;;7.47;;
82304;SDS011;71914;47.382;8.168;2023-12-20T06:03:02;15.27;;;6.88;;
82304;SDS011;71914;47.382;8.168;2023-12-20T06:05:30;17.42;;;9.00;;
82304;SDS011;71914;47.382;8.168;2023-12-20T06:07:55;15.10;;;8.50;;
82304;SDS011;71914;47.382;8.168;2023-12-20T06:10:26;17.60;;;8.00;;
82304;SDS011;71914;47.382;8.168;2023-12-20T06:12:51;14.35;;;7.93;;
82304;SDS011;71914;47.382;8.168;2023-12-20T06:15:17;15.05;;;8.82;;
82304;SDS011;71914;47.382;8.168;2023-12-20T06:17:43;12.80;;;6.38;;
82304;SDS011;71914;47.382;8.168;2023-12-20T06:20:10;10.45;;;5.63;;
82304;SDS011;71914;47.382;8.168;2023-12-20T06:22:36;15.43;;;7.40;;
82304;SDS011;71914;47.382;8.168;2023-12-20T06:25:01;14.07;;;7.10;;
82304;SDS011;71914;47.382;8.168;2023-12-20T06:27:28;17.13;;;7.75;;
82304;SDS011;71914;47.382;8.168;2023-12-20T06:29:53;15.30;;;7.22;;
82304;SDS011;71914;47.382;8.168;2023-12-20T06:32:19;10.00;;;5.15;;
82304;SDS011;71914;47.382;8.168;2023-12-20T06:34:45;19.70;;;8.70;;
82304;SDS011;71914;47.382;8.168;2023-12-20T06:37:12;16.33;;;8.50;;
82304;SDS011;71914;47.382;8.168;2023-12-20T06:39:37;15.65;;;7.65;;
82304;SDS011;71914;47.382;8.168;2023-12-20T06:42:03;17.52;;;10.00;;
82304;SDS011;71914;47.382;8.168;2023-12-20T06:44:29;14.10;;;7.38;;
82304;SDS011;71914;47.382;8.168;2023-12-20T06:46:54;11.55;;;6.18;;
82304;SDS011;71914;47.382;8.168;2023-12-20T06:49:20;13.23;;;7.28;;
82304;SDS011;71914;47.382;8.168;2023-12-20T06:51:45;16.05;;;9.00;;
82304;SDS011;71914;47.382;8.168;2023-12-20T06:54:12;19.77;;;10.50;;
82304;SDS011;71914;47.382;8.168;2023-12-20T06:56:38;15.93;;;8.35;;
82304;SDS011;71914;47.382;8.168;2023-12-20T06:59:04;10.55;;;5.72;;
82304;SDS011;71914;47.382;8.168;2023-12-20T07:01:29;17.33;;;9.48;;
82304;SDS011;71914;47.382;8.168;2023-12-20T07:03:55;12.15;;;7.65;;
82304;SDS011;71914;47.382;8.168;2023-12-20T07:06:20;13.95;;;8.35;;
82304;SDS011;71914;47.382;8.168;2023-12-20T07:08:46;22.48;;;10.38;;
82304;SDS011;71914;47.382;8.168;2023-12-20T07:11:13;16.13;;;9.32;;
82304;SDS011;71914;47.382;8.168;2023-12-20T07:13:39;19.77;;;10.75;;
82304;SDS011;71914;47.382;8.168;2023-12-20T07:16:04;14.30;;;9.35;;
82304;SDS011;71914;47.382;8.168;2023-12-20T07:18:30;10.35;;;5.45;;
82304;SDS011;71914;47.382;8.168;2023-12-20T07:20:56;12.63;;;8.90;;
82304;SDS011;71914;47.382;8.168;2023-12-20T07:23:21;22.02;;;12.05;;
82304;SDS011;71914;47.382;8.168;2023-12-20T07:25:47;21.90;;;11.50;;
82304;SDS011;71914;47.382;8.168;2023-12-20T07:28:14;14.57;;;8.80;;
82304;SDS011;71914;47.382;8.168;2023-12-20T07:30:40;20.33;;;11.68;;
82304;SDS011;71914;47.382;8.168;2023-12-20T07:33:05;20.63;;;9.70;;
82304;SDS011;71914;47.382;8.168;2023-12-20T07:35:33;22.30;;;10.00;;
82304;SDS011;71914;47.382;8.168;2023-12-20T07:37:59;20.88;;;9.60;;
82304;SDS011;71914;47.382;8.168;2023-12-20T07:40:25;29.00;;;16.58;;
82304;SDS011;71914;47.382;8.168;2023-12-20T07:42:50;15.90;;;10.15;;
82304;SDS011;71914;47.382;8.168;2023-12-20T07:45:17;23.88;;;11.23;;
82304;SDS011;71914;47.382;8.168;2023-12-20T07:47:43;17.90;;;8.15;;
82304;SDS011;71914;47.382;8.168;2023-12-20T07:50:09;27.00;;;14.15;;
82304;SDS011;71914;47.382;8.168;2023-12-20T07:52:35;11.73;;;6.88;;
82304;SDS011;71914;47.382;8.168;2023-12-20T07:55:01;15.93;;;8.52;;
82304;SDS011;71914;47.382;8.168;2023-12-20T07:57:28;26.70;;;12.63;;
82304;SDS011;71914;47.382;8.168;2023-12-20T07:59:54;20.20;;;10.65;;
82304;SDS011;71914;47.382;8.168;2023-12-20T08:02:21;30.38;;;13.85;;
82304;SDS011;71914;47.382;8.168;2023-12-20T08:04:47;23.73;;;13.57;;
82304;SDS011;71914;47.382;8.168;2023-12-20T08:07:12;25.50;;;10.98;;
82304;SDS011;71914;47.382;8.168;2023-12-20T08:09:38;11.27;;;6.78;;
82304;SDS011;71914;47.382;8.168;2023-12-20T08:12:04;8.20;;;5.18;;
82304;SDS011;71914;47.382;8.168;2023-12-20T08:14:30;31.65;;;14.30;;
82304;SDS011;71914;47.382;8.168;2023-12-20T08:16:56;21.58;;;10.23;;
82304;SDS011;71914;47.382;8.168;2023-12-20T08:19:23;25.02;;;12.43;;
82304;SDS011;71914;47.382;8.168;2023-12-20T08:21:49;22.63;;;10.15;;
82304;SDS011;71914;47.382;8.168;2023-12-20T08:24:15;18.88;;;9.82;;
82304;SDS011;71914;47.382;8.168;2023-12-20T08:26:40;24.52;;;11.23;;
82304;SDS011;71914;47.382;8.168;2023-12-20T08:29:06;25.20;;;12.07;;
82304;SDS011;71914;47.382;8.168;2023-12-20T08:31:32;20.33;;;10.00;;
82304;SDS011;71914;47.382;8.168;2023-12-20T08:33:57;10.85;;;6.68;;
82304;SDS011;71914;47.382;8.168;2023-12-20T08:36:24;19.15;;;8.73;;
82304;SDS011;71914;47.382;8.168;2023-12-20T08:38:50;11.93;;;7.93;;
82304;SDS011;71914;47.382;8.168;2023-12-20T08:41:16;21.52;;;9.90;;
82304;SDS011;71914;47.382;8.168;2023-12-20T08:43:42;22.45;;;10.93;;
82304;SDS011;71914;47.382;8.168;2023-12-20T08:46:08;13.52;;;7.97;;
82304;SDS011;71914;47.382;8.168;2023-12-20T08:48:37;23.30;;;12.80;;
82304;SDS011;71914;47.382;8.168;2023-12-20T08:51:03;21.42;;;12.13;;
82304;SDS011;71914;47.382;8.168;2023-12-20T08:53:30;19.55;;;9.95;;
82304;SDS011;71914;47.382;8.168;2023-12-20T08:55:55;21.30;;;11.32;;
82304;SDS011;71914;47.382;8.168;2023-12-20T08:58:23;18.13;;;10.35;;
82304;SDS011;71914;47.382;8.168;2023-12-20T09:00:48;16.10;;;9.85;;
82304;SDS011;71914;47.382;8.168;2023-12-20T09:03:14;11.55;;;6.82;;
82304;SDS011;71914;47.382;8.168;2023-12-20T09:05:40;22.45;;;11.68;;
82304;SDS011;71914;47.382;8.168;2023-12-20T09:08:05;14.05;;;8.48;;
82304;SDS011;71914;47.382;8.168;2023-12-20T09:10:34;21.77;;;10.48;;
82304;SDS011;71914;47.382;8.168;2023-12-20T09:13:00;22.52;;;12.80;;
82304;SDS011;71914;47.382;8.168;2023-12-20T09:15:26;11.00;;;6.00;;
82304;SDS011;71914;47.382;8.168;2023-12-20T09:17:52;19.10;;;10.00;;
82304;SDS011;71914;47.382;8.168;2023-12-20T09:20:17;21.73;;;10.52;;
82304;SDS011;71914;47.382;8.168;2023-12-20T09:22:43;18.13;;;9.48;;
82304;SDS011;71914;47.382;8.168;2023-12-20T09:25:09;18.58;;;10.30;;
82304;SDS011;71914;47.382;8.168;2023-12-20T09:27:37;17.13;;;8.48;;
82304;SDS011;71914;47.382;8.168;2023-12-20T09:32:30;16.35;;;7.25;;
82304;SDS011;71914;47.382;8.168;2023-12-20T09:34:55;12.38;;;7.75;;
82304;SDS011;71914;47.382;8.168;2023-12-20T09:37:21;11.77;;;6.90;;
82304;SDS011;71914;47.382;8.168;2023-12-20T09:39:47;10.23;;;6.57;;
82304;SDS011;71914;47.382;8.168;2023-12-20T09:42:13;17.83;;;8.73;;
82304;SDS011;71914;47.382;8.168;2023-12-20T09:44:48;16.38;;;9.20;;
82304;SDS011;71914;47.382;8.168;2023-12-20T09:47:13;8.27;;;5.75;;
82304;SDS011;71914;47.382;8.168;2023-12-20T09:49:45;11.77;;;6.68;;
82304;SDS011;71914;47.382;8.168;2023-12-20T09:52:11;12.13;;;6.28;;
82304;SDS011;71914;47.382;8.168;2023-12-20T09:54:39;12.82;;;8.85;;
82304;SDS011;71914;47.382;8.168;2023-12-20T09:57:06;14.95;;;7.88;;
82304;SDS011;71914;47.382;8.168;2023-12-20T09:59:31;13.60;;;7.53;;
82304;SDS011;71914;47.382;8.168;2023-12-20T10:01:58;9.32;;;5.43;;
82304;SDS011;71914;47.382;8.168;2023-12-20T10:04:29;11.57;;;6.55;;
82304;SDS011;71914;47.382;8.168;2023-12-20T10:07:01;7.80;;;4.57;;
82304;SDS011;71914;47.382;8.168;2023-12-20T10:09:29;9.60;;;5.43;;
82304;SDS011;71914;47.382;8.168;2023-12-20T10:11:56;9.52;;;6.15;;
82304;SDS011;71914;47.382;8.168;2023-12-20T10:14:23;10.38;;;5.97;;
82304;SDS011;71914;47.382;8.168;2023-12-20T10:16:49;8.68;;;5.25;;
82304;SDS011;71914;47.382;8.168;2023-12-20T10:19:17;11.68;;;5.80;;
82304;SDS011;71914;47.382;8.168;2023-12-20T10:21:44;8.48;;;5.13;;
82304;SDS011;71914;47.382;8.168;2023-12-20T10:24:11;8.52;;;5.13;;
82304;SDS011;71914;47.382;8.168;2023-12-20T10:26:42;8.27;;;5.05;;
82304;SDS011;71914;47.382;8.168;2023-12-20T10:29:07;9.88;;;6.10;;
82304;SDS011;71914;47.382;8.168;2023-12-20T10:31:33;6.13;;;3.35;;
82304;SDS011;71914;47.382;8.168;2023-12-20T10:34:00;6.30;;;4.20;;
82304;SDS011;71914;47.382;8.168;2023-12-20T10:36:29;7.47;;;4.50;;
82304;SDS011;71914;47.382;8.168;2023-12-20T10:38:56;9.95;;;5.85;;
82304;SDS011;71914;47.382;8.168;2023-12-20T10:41:24;8.38;;;4.72;;
82304;SDS011;71914;47.382;8.168;2023-12-20T10:43:53;5.35;;;3.50;;
82304;SDS011;71914;47.382;8.168;2023-12-20T10:46:21;6.20;;;4.40;;
82304;SDS011;71914;47.382;8.168;2023-12-20T10:48:47;8.27;;;4.10;;
82304;SDS011;71914;47.382;8.168;2023-12-20T10:51:17;5.70;;;3.15;;
82304;SDS011;71914;47.382;8.168;2023-12-20T10:53:45;5.93;;;3.47;;
82304;SDS011;71914;47.382;8.168;2023-12-20T10:56:12;6.25;;;4.20;;
82304;SDS011;71914;47.382;8.168;2023-12-20T10:58:42;6.72;;;3.83;;
82304;SDS011;71914;47.382;8.168;2023-12-20T11:01:12;6.15;;;3.05;;
82304;SDS011;71914;47.382;8.168;2023-12-20T11:03:39;5.32;;;2.95;;
82304;SDS011;71914;47.382;8.168;2023-12-20T11:06:10;5.05;;;2.80;;
82304;SDS011;71914;47.382;8.168;2023-12-20T11:08:46;5.07;;;3.53;;
82304;SDS011;71914;47.382;8.168;2023-12-20T11:11:17;4.65;;;3.00;;
82304;SDS011;71914;47.382;8.168;2023-12-20T11:13:53;2.92;;;1.88;;
82304;SDS011;71914;47.382;8.168;2023-12-20T11:16:23;2.85;;;1.98;;
82304;SDS011;71914;47.382;8.168;2023-12-20T11:18:50;1.60;;;1.00;;
82304;SDS011;71914;47.382;8.168;2023-12-20T11:21:16;2.28;;;1.30;;
82304;SDS011;71914;47.382;8.168;2023-12-20T11:23:42;2.90;;;1.50;;
82304;SDS011;71914;47.382;8.168;2023-12-20T11:26:09;1.20;;;0.75;;
82304;SDS011;71914;47.382;8.168;2023-12-20T11:31:00;1.80;;;1.13;;
82304;SDS011;71914;47.382;8.168;2023-12-20T11:36:18;2.65;;;1.35;;
82304;SDS011;71914;47.382;8.168;2023-12-20T11:38:58;1.52;;;0.73;;
82304;SDS011;71914;47.382;8.168;2023-12-20T11:41:45;1.35;;;0.80;;
82304;SDS011;71914;47.382;8.168;2023-12-20T11:44:14;1.70;;;1.00;;
82304;SDS011;71914;47.382;8.168;2023-12-20T11:46:48;1.90;;;1.00;;
82304;SDS011;71914;47.382;8.168;2023-12-20T11:49:17;2.00;;;1.00;;
82304;SDS011;71914;47.382;8.168;2023-12-20T11:51:45;2.08;;;1.10;;
82304;SDS011;71914;47.382;8.168;2023-12-20T11:54:10;2.55;;;1.00;;
82304;SDS011;71914;47.382;8.168;2023-12-20T11:56:38;1.95;;;1.10;;
82304;SDS011;71914;47.382;8.168;2023-12-20T12:01:29;2.00;;;1.20;;
82304;SDS011;71914;47.382;8.168;2023-12-20T12:04:05;2.33;;;0.70;;
82304;SDS011;71914;47.382;8.168;2023-12-20T12:06:32;1.20;;;0.73;;
82304;SDS011;71914;47.382;8.168;2023-12-20T12:08:59;1.33;;;0.80;;
82304;SDS011;71914;47.382;8.168;2023-12-20T12:11:25;0.65;;;0.35;;
82304;SDS011;71914;47.382;8.168;2023-12-20T12:14:07;1.00;;;0.60;;
82304;SDS011;71914;47.382;8.168;2023-12-20T12:16:37;1.52;;;0.98;;
82304;SDS011;71914;47.382;8.168;2023-12-20T12:19:06;9.20;;;1.38;;
82304;SDS011;71914;47.382;8.168;2023-12-20T12:21:32;0.98;;;0.60;;
82304;SDS011;71914;47.382;8.168;2023-12-20T12:24:06;1.40;;;0.90;;
82304;SDS011;71914;47.382;8.168;2023-12-20T12:26:32;1.20;;;0.80;;
82304;SDS011;71914;47.382;8.168;2023-12-20T12:28:57;1.90;;;1.17;;
82304;SDS011;71914;47.382;8.168;2023-12-20T12:31:24;1.95;;;1.10;;
82304;SDS011;71914;47.382;8.168;2023-12-20T12:33:51;1.73;;;0.93;;
82304;SDS011;71914;47.382;8.168;2023-12-20T12:36:17;1.42;;;1.00;;
82304;SDS011;71914;47.382;8.168;2023-12-20T12:38:43;1.13;;;0.77;;
82304;SDS011;71914;47.382;8.168;2023-12-20T12:41:09;1.75;;;0.93;;
82304;SDS011;71914;47.382;8.168;2023-12-20T12:43:37;1.42;;;0.80;;
82304;SDS011;71914;47.382;8.168;2023-12-20T12:46:03;1.02;;;0.75;;
82304;SDS011;71914;47.382;8.168;2023-12-20T12:48:30;2.03;;;0.93;;
82304;SDS011;71914;47.382;8.168;2023-12-20T12:50:56;1.67;;;1.15;;
82304;SDS011;71914;47.382;8.168;2023-12-20T12:53:24;2.20;;;1.15;;
82304;SDS011;71914;47.382;8.168;2023-12-20T12:55:51;3.30;;;1.35;;
82304;SDS011;71914;47.382;8.168;2023-12-20T12:58:16;1.75;;;0.80;;
82304;SDS011;71914;47.382;8.168;2023-12-20T13:00:42;1.52;;;0.60;;
82304;SDS011;71914;47.382;8.168;2023-12-20T13:03:08;1.83;;;0.90;;
82304;SDS011;71914;47.382;8.168;2023-12-20T13:05:35;2.17;;;0.85;;
82304;SDS011;71914;47.382;8.168;2023-12-20T13:08:00;1.50;;;0.82;;
82304;SDS011;71914;47.382;8.168;2023-12-20T13:10:26;2.13;;;1.13;;
82304;SDS011;71914;47.382;8.168;2023-12-20T13:12:52;1.40;;;0.90;;
82304;SDS011;71914;47.382;8.168;2023-12-20T13:15:17;2.63;;;1.77;;
82304;SDS011;71914;47.382;8.168;2023-12-20T13:17:43;1.90;;;1.27;;
82304;SDS011;71914;47.382;8.168;2023-12-20T13:20:11;4.25;;;1.73;;
82304;SDS011;71914;47.382;8.168;2023-12-20T13:22:38;4.72;;;1.58;;
82304;SDS011;71914;47.382;8.168;2023-12-20T13:25:04;2.78;;;1.23;;
82304;SDS011;71914;47.382;8.168;2023-12-20T13:27:31;1.50;;;1.30;;
82304;SDS011;71914;47.382;8.168;2023-12-20T13:29:57;1.90;;;0.98;;
82304;SDS011;71914;47.382;8.168;2023-12-20T13:32:23;1.58;;;0.80;;
82304;SDS011;71914;47.382;8.168;2023-12-20T13:34:49;1.10;;;0.77;;
82304;SDS011;71914;47.382;8.168;2023-12-20T13:37:15;2.33;;;0.93;;
82304;SDS011;71914;47.382;8.168;2023-12-20T13:39:42;4.72;;;1.48;;
82304;SDS011;71914;47.382;8.168;2023-12-20T13:42:08;1.33;;;0.90;;
82304;SDS011;71914;47.382;8.168;2023-12-20T13:44:34;2.38;;;0.77;;
82304;SDS011;71914;47.382;8.168;2023-12-20T13:46:59;5.13;;;1.30;;
82304;SDS011;71914;47.382;8.168;2023-12-20T13:49:26;1.63;;;0.90;;
82304;SDS011;71914;47.382;8.168;2023-12-20T13:51:53;1.90;;;0.85;;
82304;SDS011;71914;47.382;8.168;2023-12-20T13:54:20;1.35;;;1.10;;
82304;SDS011;71914;47.382;8.168;2023-12-20T13:56:48;4.70;;;1.23;;
82304;SDS011;71914;47.382;8.168;2023-12-20T13:59:13;3.42;;;1.70;;
82304;SDS011;71914;47.382;8.168;2023-12-20T14:01:40;3.05;;;1.20;;
82304;SDS011;71914;47.382;8.168;2023-12-20T14:04:06;5.85;;;1.52;;
82304;SDS011;71914;47.382;8.168;2023-12-20T14:06:32;3.83;;;1.58;;
82304;SDS011;71914;47.382;8.168;2023-12-20T14:08:58;2.50;;;1.20;;
82304;SDS011;71914;47.382;8.168;2023-12-20T14:11:25;2.55;;;0.73;;
82304;SDS011;71914;47.382;8.168;2023-12-20T14:13:52;3.63;;;1.10;;
82304;SDS011;71914;47.382;8.168;2023-12-20T14:16:22;2.72;;;1.00;;
82304;SDS011;71914;47.382;8.168;2023-12-20T14:18:48;1.60;;;0.90;;
82304;SDS011;71914;47.382;8.168;2023-12-20T14:21:14;3.08;;;1.27;;
82304;SDS011;71914;47.382;8.168;2023-12-20T14:23:40;2.47;;;1.23;;
82304;SDS011;71914;47.382;8.168;2023-12-20T14:26:05;6.85;;;1.48;;
82304;SDS011;71914;47.382;8.168;2023-12-20T14:28:31;3.17;;;1.60;;
82304;SDS011;71914;47.382;8.168;2023-12-20T14:30:58;4.18;;;1.17;;
82304;SDS011;71914;47.382;8.168;2023-12-20T14:33:23;5.38;;;1.38;;
82304;SDS011;71914;47.382;8.168;2023-12-20T14:35:49;4.65;;;1.52;;
82304;SDS011;71914;47.382;8.168;2023-12-20T14:38:15;5.80;;;1.42;;
82304;SDS011;71914;47.382;8.168;2023-12-20T14:40:40;3.58;;;1.55;;
82304;SDS011;71914;47.382;8.168;2023-12-20T14:43:06;4.97;;;1.55;;
82304;SDS011;71914;47.382;8.168;2023-12-20T14:45:31;3.03;;;1.58;;
82304;SDS011;71914;47.382;8.168;2023-12-20T14:47:58;2.67;;;1.30;;
82304;SDS011;71914;47.382;8.168;2023-12-20T14:50:24;6.30;;;1.20;;
82304;SDS011;71914;47.382;8.168;2023-12-20T14:52:50;4.35;;;1.73;;
82304;SDS011;71914;47.382;8.168;2023-12-20T14:55:19;2.38;;;1.10;;
82304;SDS011;71914;47.382;8.168;2023-12-20T14:57:46;3.95;;;1.10;;